sensor_id;sensor_type;location;lat;lon;timestamp;P1;durP1;ratioP1;P2;durP2;ratioP2
23290;SDS011;11814;44.686;10.842;2023-08-20T00:00:54;12.80;;;11.13;;
23290;SDS011;11814;44.686;10.842;2023-08-20T00:03:21;14.20;;;10.88;;
23290;SDS011;11814;44.686;10.842;2023-08-20T00:05:47;15.63;;;11.00;;
23290;SDS011;11814;44.686;10.842;2023-08-20T00:08:13;14.93;;;11.23;;
23290;SDS011;11814;44.686;10.842;2023-08-20T00:10:39;14.10;;;11.38;;
23290;SDS011;11814;44.686;10.842;2023-08-20T00:13:04;15.85;;;11.32;;
23290;SDS011;11814;44.686;10.842;2023-08-20T00:15:30;16.52;;;10.15;;
23290;SDS011;11814;44.686;10.842;2023-08-20T00:17:56;13.25;;;10.93;;
23290;SDS011;11814;44.686;10.842;2023-08-20T00:20:22;13.32;;;10.63;;
23290;SDS011;11814;44.686;10.842;2023-08-20T00:22:48;13.48;;;11.18;;
23290;SDS011;11814;44.686;10.842;2023-08-20T00:25:15;21.85;;;10.75;;
23290;SDS011;11814;44.686;10.842;2023-08-20T00:27:41;13.43;;;11.13;;
23290;SDS011;11814;44.686;10.842;2023-08-20T00:30:08;18.10;;;12.02;;
23290;SDS011;11814;44.686;10.842;2023-08-20T00:32:35;11.95;;;10.63;;
23290;SDS011;11814;44.686;10.842;2023-08-20T00:35:02;12.52;;;10.68;;
23290;SDS011;11814;44.686;10.842;2023-08-20T00:37:28;13.68;;;11.15;;
23290;SDS011;11814;44.686;10.842;2023-08-20T00:39:54;15.07;;;10.40;;
23290;SDS011;11814;44.686;10.842;2023-08-20T00:42:20;17.35;;;11.38;;
23290;SDS011;11814;44.686;10.842;2023-08-20T00:44:46;13.27;;;10.52;;
23290;SDS011;11814;44.686;10.842;2023-08-20T00:47:12;11.18;;;9.88;;
23290;SDS011;11814;44.686;10.842;2023-08-20T00:49:39;13.80;;;10.90;;
23290;SDS011;11814;44.686;10.842;2023-08-20T00:52:06;14.40;;;10.80;;
23290;SDS011;11814;44.686;10.842;2023-08-20T00:54:37;14.48;;;9.93;;
23290;SDS011;11814;44.686;10.842;2023-08-20T00:57:05;13.18;;;10.35;;
23290;SDS011;11814;44.686;10.842;2023-08-20T00:59:32;12.82;;;11.32;;
23290;SDS011;11814;44.686;10.842;2023-08-20T01:01:58;16.08;;;10.85;;
23290;SDS011;11814;44.686;10.842;2023-08-20T01:04:25;13.90;;;10.35;;
23290;SDS011;11814;44.686;10.842;2023-08-20T01:09:54;13.52;;;11.00;;
23290;SDS011;11814;44.686;10.842;2023-08-20T01:12:22;14.27;;;10.40;;
23290;SDS011;11814;44.686;10.842;2023-08-20T01:14:49;13.93;;;11.20;;
23290;SDS011;11814;44.686;10.842;2023-08-20T01:17:15;14.05;;;11.73;;
23290;SDS011;11814;44.686;10.842;2023-08-20T01:19:41;16.08;;;11.55;;
23290;SDS011;11814;44.686;10.842;2023-08-20T01:30:23;14.48;;;11.13;;
23290;SDS011;11814;44.686;10.842;2023-08-20T01:32:50;15.90;;;12.63;;
23290;SDS011;11814;44.686;10.842;2023-08-20T01:35:18;13.63;;;11.77;;
23290;SDS011;11814;44.686;10.842;2023-08-20T01:37:44;17.15;;;12.68;;
23290;SDS011;11814;44.686;10.842;2023-08-20T01:40:10;13.00;;;11.40;;
23290;SDS011;11814;44.686;10.842;2023-08-20T01:42:37;17.10;;;12.57;;
23290;SDS011;11814;44.686;10.842;2023-08-20T01:45:03;16.13;;;12.68;;
23290;SDS011;11814;44.686;10.842;2023-08-20T01:47:30;13.57;;;12.18;;
23290;SDS011;11814;44.686;10.842;2023-08-20T01:49:56;20.60;;;12.10;;
23290;SDS011;11814;44.686;10.842;2023-08-20T01:52:22;16.23;;;12.10;;
23290;SDS011;11814;44.686;10.842;2023-08-20T01:54:48;13.52;;;11.73;;
23290;SDS011;11814;44.686;10.842;2023-08-20T01:57:14;14.23;;;12.80;;
23290;SDS011;11814;44.686;10.842;2023-08-20T01:59:40;14.43;;;11.88;;
23290;SDS011;11814;44.686;10.842;2023-08-20T02:02:05;14.63;;;12.25;;
23290;SDS011;11814;44.686;10.842;2023-08-20T02:04:31;14.60;;;13.02;;
23290;SDS011;11814;44.686;10.842;2023-08-20T02:06:57;18.70;;;14.88;;
23290;SDS011;11814;44.686;10.842;2023-08-20T02:09:23;14.27;;;12.88;;
23290;SDS011;11814;44.686;10.842;2023-08-20T02:11:49;18.05;;;14.45;;
23290;SDS011;11814;44.686;10.842;2023-08-20T02:14:16;17.30;;;14.25;;
23290;SDS011;11814;44.686;10.842;2023-08-20T02:16:42;16.00;;;13.32;;
23290;SDS011;11814;44.686;10.842;2023-08-20T02:19:08;15.90;;;13.95;;
23290;SDS011;11814;44.686;10.842;2023-08-20T02:21:34;17.67;;;13.82;;
23290;SDS011;11814;44.686;10.842;2023-08-20T02:23:59;18.45;;;14.35;;
23290;SDS011;11814;44.686;10.842;2023-08-20T02:26:25;16.50;;;14.20;;
23290;SDS011;11814;44.686;10.842;2023-08-20T02:28:51;14.65;;;12.65;;
23290;SDS011;11814;44.686;10.842;2023-08-20T02:31:16;21.75;;;13.43;;
23290;SDS011;11814;44.686;10.842;2023-08-20T02:33:42;18.42;;;13.82;;
23290;SDS011;11814;44.686;10.842;2023-08-20T02:36:08;22.15;;;14.23;;
23290;SDS011;11814;44.686;10.842;2023-08-20T02:38:33;14.73;;;13.18;;
23290;SDS011;11814;44.686;10.842;2023-08-20T02:40:59;14.93;;;13.43;;
23290;SDS011;11814;44.686;10.842;2023-08-20T02:43:28;15.40;;;13.80;;
23290;SDS011;11814;44.686;10.842;2023-08-20T02:45:54;16.63;;;13.43;;
23290;SDS011;11814;44.686;10.842;2023-08-20T02:48:20;13.68;;;11.95;;
23290;SDS011;11814;44.686;10.842;2023-08-20T02:50:46;18.95;;;13.02;;
23290;SDS011;11814;44.686;10.842;2023-08-20T02:53:11;17.00;;;13.77;;
23290;SDS011;11814;44.686;10.842;2023-08-20T02:55:37;14.50;;;12.82;;
23290;SDS011;11814;44.686;10.842;2023-08-20T02:58:03;16.15;;;13.23;;
23290;SDS011;11814;44.686;10.842;2023-08-20T03:00:29;19.83;;;14.93;;
23290;SDS011;11814;44.686;10.842;2023-08-20T03:02:55;18.25;;;13.93;;
23290;SDS011;11814;44.686;10.842;2023-08-20T03:05:21;16.20;;;13.52;;
23290;SDS011;11814;44.686;10.842;2023-08-20T03:07:47;16.38;;;14.73;;
23290;SDS011;11814;44.686;10.842;2023-08-20T03:10:14;18.58;;;14.85;;
23290;SDS011;11814;44.686;10.842;2023-08-20T03:12:39;16.40;;;14.13;;
23290;SDS011;11814;44.686;10.842;2023-08-20T03:15:05;15.95;;;14.32;;
23290;SDS011;11814;44.686;10.842;2023-08-20T03:17:31;14.55;;;13.20;;
23290;SDS011;11814;44.686;10.842;2023-08-20T03:19:58;16.35;;;14.65;;
23290;SDS011;11814;44.686;10.842;2023-08-20T03:22:24;20.20;;;12.80;;
23290;SDS011;11814;44.686;10.842;2023-08-20T03:24:51;20.48;;;13.80;;
23290;SDS011;11814;44.686;10.842;2023-08-20T03:27:17;17.67;;;15.38;;
23290;SDS011;11814;44.686;10.842;2023-08-20T03:29:43;18.65;;;15.20;;
23290;SDS011;11814;44.686;10.842;2023-08-20T03:32:09;20.13;;;15.90;;
23290;SDS011;11814;44.686;10.842;2023-08-20T03:34:35;17.75;;;15.95;;
23290;SDS011;11814;44.686;10.842;2023-08-20T03:37:01;16.63;;;14.82;;
23290;SDS011;11814;44.686;10.842;2023-08-20T03:39:27;17.35;;;14.85;;
23290;SDS011;11814;44.686;10.842;2023-08-20T03:41:53;17.42;;;15.57;;
23290;SDS011;11814;44.686;10.842;2023-08-20T03:44:19;18.85;;;14.07;;
23290;SDS011;11814;44.686;10.842;2023-08-20T03:46:45;18.92;;;15.68;;
23290;SDS011;11814;44.686;10.842;2023-08-20T03:49:10;18.63;;;16.67;;
23290;SDS011;11814;44.686;10.842;2023-08-20T03:51:36;20.95;;;15.85;;
23290;SDS011;11814;44.686;10.842;2023-08-20T03:54:02;18.80;;;16.13;;
23290;SDS011;11814;44.686;10.842;2023-08-20T03:56:28;18.92;;;15.35;;
23290;SDS011;11814;44.686;10.842;2023-08-20T03:58:54;20.52;;;15.73;;
23290;SDS011;11814;44.686;10.842;2023-08-20T04:01:20;17.08;;;15.25;;
23290;SDS011;11814;44.686;10.842;2023-08-20T04:03:46;19.15;;;15.88;;
23290;SDS011;11814;44.686;10.842;2023-08-20T04:06:12;18.30;;;14.88;;
23290;SDS011;11814;44.686;10.842;2023-08-20T04:08:38;17.77;;;15.98;;
23290;SDS011;11814;44.686;10.842;2023-08-20T04:11:04;18.08;;;16.17;;
23290;SDS011;11814;44.686;10.842;2023-08-20T04:13:29;18.35;;;16.35;;
23290;SDS011;11814;44.686;10.842;2023-08-20T04:15:55;17.92;;;16.05;;
23290;SDS011;11814;44.686;10.842;2023-08-20T04:18:21;22.10;;;17.00;;
23290;SDS011;11814;44.686;10.842;2023-08-20T04:20:47;19.38;;;17.38;;
23290;SDS011;11814;44.686;10.842;2023-08-20T04:23:15;17.38;;;15.30;;
23290;SDS011;11814;44.686;10.842;2023-08-20T04:25:40;20.17;;;16.80;;
23290;SDS011;11814;44.686;10.842;2023-08-20T04:28:06;19.15;;;17.17;;
23290;SDS011;11814;44.686;10.842;2023-08-20T04:30:32;20.30;;;16.75;;
23290;SDS011;11814;44.686;10.842;2023-08-20T04:33:00;20.48;;;16.98;;
23290;SDS011;11814;44.686;10.842;2023-08-20T04:35:25;18.73;;;15.88;;
23290;SDS011;11814;44.686;10.842;2023-08-20T04:37:51;20.65;;;16.80;;
23290;SDS011;11814;44.686;10.842;2023-08-20T04:40:16;19.55;;;17.55;;
23290;SDS011;11814;44.686;10.842;2023-08-20T04:42:42;20.17;;;17.60;;
23290;SDS011;11814;44.686;10.842;2023-08-20T04:45:08;19.05;;;16.95;;
23290;SDS011;11814;44.686;10.842;2023-08-20T04:47:35;19.23;;;16.73;;
23290;SDS011;11814;44.686;10.842;2023-08-20T04:50:01;19.77;;;17.67;;
23290;SDS011;11814;44.686;10.842;2023-08-20T04:52:26;20.85;;;18.63;;
23290;SDS011;11814;44.686;10.842;2023-08-20T04:54:52;22.35;;;18.45;;
23290;SDS011;11814;44.686;10.842;2023-08-20T04:57:17;19.85;;;17.52;;
23290;SDS011;11814;44.686;10.842;2023-08-20T04:59:43;19.85;;;16.95;;
23290;SDS011;11814;44.686;10.842;2023-08-20T05:02:10;19.92;;;17.80;;
23290;SDS011;11814;44.686;10.842;2023-08-20T05:04:37;20.42;;;18.05;;
23290;SDS011;11814;44.686;10.842;2023-08-20T05:07:03;21.15;;;17.77;;
23290;SDS011;11814;44.686;10.842;2023-08-20T05:09:29;21.05;;;18.73;;
23290;SDS011;11814;44.686;10.842;2023-08-20T05:11:55;20.98;;;17.92;;
23290;SDS011;11814;44.686;10.842;2023-08-20T05:14:21;21.60;;;18.63;;
23290;SDS011;11814;44.686;10.842;2023-08-20T05:16:47;21.27;;;17.60;;
23290;SDS011;11814;44.686;10.842;2023-08-20T05:19:12;27.70;;;18.02;;
23290;SDS011;11814;44.686;10.842;2023-08-20T05:21:38;20.83;;;17.13;;
23290;SDS011;11814;44.686;10.842;2023-08-20T05:24:03;24.92;;;19.02;;
23290;SDS011;11814;44.686;10.842;2023-08-20T05:26:29;20.23;;;17.05;;
23290;SDS011;11814;44.686;10.842;2023-08-20T05:28:55;22.70;;;17.52;;
23290;SDS011;11814;44.686;10.842;2023-08-20T05:31:21;20.38;;;17.52;;
23290;SDS011;11814;44.686;10.842;2023-08-20T05:33:46;19.70;;;16.63;;
23290;SDS011;11814;44.686;10.842;2023-08-20T05:36:13;19.63;;;17.50;;
23290;SDS011;11814;44.686;10.842;2023-08-20T05:38:39;20.70;;;17.13;;
23290;SDS011;11814;44.686;10.842;2023-08-20T05:41:07;23.33;;;18.63;;
23290;SDS011;11814;44.686;10.842;2023-08-20T05:43:32;26.77;;;16.48;;
23290;SDS011;11814;44.686;10.842;2023-08-20T05:45:58;22.48;;;17.35;;
23290;SDS011;11814;44.686;10.842;2023-08-20T05:48:24;22.63;;;17.50;;
23290;SDS011;11814;44.686;10.842;2023-08-20T05:50:49;21.40;;;17.13;;
23290;SDS011;11814;44.686;10.842;2023-08-20T05:53:15;19.48;;;16.77;;
23290;SDS011;11814;44.686;10.842;2023-08-20T05:55:41;25.58;;;18.30;;
23290;SDS011;11814;44.686;10.842;2023-08-20T05:58:06;20.35;;;15.68;;
23290;SDS011;11814;44.686;10.842;2023-08-20T06:00:32;23.65;;;14.70;;
23290;SDS011;11814;44.686;10.842;2023-08-20T06:02:58;16.75;;;14.23;;
23290;SDS011;11814;44.686;10.842;2023-08-20T06:05:23;15.90;;;14.18;;
23290;SDS011;11814;44.686;10.842;2023-08-20T06:07:49;16.85;;;13.07;;
23290;SDS011;11814;44.686;10.842;2023-08-20T06:10:15;18.15;;;12.85;;
23290;SDS011;11814;44.686;10.842;2023-08-20T06:12:40;19.90;;;13.50;;
23290;SDS011;11814;44.686;10.842;2023-08-20T06:15:07;19.85;;;13.27;;
23290;SDS011;11814;44.686;10.842;2023-08-20T06:17:33;14.25;;;12.60;;
23290;SDS011;11814;44.686;10.842;2023-08-20T06:19:59;16.25;;;12.68;;
23290;SDS011;11814;44.686;10.842;2023-08-20T06:22:24;21.10;;;11.77;;
23290;SDS011;11814;44.686;10.842;2023-08-20T06:24:50;17.00;;;12.10;;
23290;SDS011;11814;44.686;10.842;2023-08-20T06:27:15;16.30;;;12.23;;
23290;SDS011;11814;44.686;10.842;2023-08-20T06:29:41;16.30;;;12.20;;
23290;SDS011;11814;44.686;10.842;2023-08-20T06:32:07;16.45;;;11.25;;
23290;SDS011;11814;44.686;10.842;2023-08-20T06:34:35;14.93;;;11.38;;
23290;SDS011;11814;44.686;10.842;2023-08-20T06:37:01;12.27;;;11.00;;
23290;SDS011;11814;44.686;10.842;2023-08-20T06:39:27;15.57;;;11.02;;
23290;SDS011;11814;44.686;10.842;2023-08-20T06:41:52;16.10;;;11.32;;
23290;SDS011;11814;44.686;10.842;2023-08-20T06:44:18;12.68;;;10.77;;
23290;SDS011;11814;44.686;10.842;2023-08-20T06:46:44;12.68;;;10.63;;
23290;SDS011;11814;44.686;10.842;2023-08-20T06:49:09;13.73;;;10.95;;
23290;SDS011;11814;44.686;10.842;2023-08-20T06:51:35;12.98;;;9.60;;
23290;SDS011;11814;44.686;10.842;2023-08-20T06:54:01;11.63;;;9.98;;
23290;SDS011;11814;44.686;10.842;2023-08-20T06:56:27;12.52;;;10.40;;
23290;SDS011;11814;44.686;10.842;2023-08-20T06:58:53;12.10;;;9.85;;
23290;SDS011;11814;44.686;10.842;2023-08-20T07:01:19;12.50;;;10.25;;
23290;SDS011;11814;44.686;10.842;2023-08-20T07:03:45;14.40;;;10.70;;
23290;SDS011;11814;44.686;10.842;2023-08-20T07:06:10;12.30;;;10.90;;
23290;SDS011;11814;44.686;10.842;2023-08-20T07:08:39;13.82;;;11.05;;
23290;SDS011;11814;44.686;10.842;2023-08-20T07:11:05;11.70;;;9.77;;
23290;SDS011;11814;44.686;10.842;2023-08-20T07:13:31;16.42;;;10.77;;
23290;SDS011;11814;44.686;10.842;2023-08-20T07:15:57;13.30;;;9.93;;
23290;SDS011;11814;44.686;10.842;2023-08-20T07:18:23;13.07;;;9.88;;
23290;SDS011;11814;44.686;10.842;2023-08-20T07:20:49;13.98;;;9.30;;
23290;SDS011;11814;44.686;10.842;2023-08-20T07:23:16;12.18;;;9.13;;
23290;SDS011;11814;44.686;10.842;2023-08-20T07:25:41;18.50;;;9.00;;
23290;SDS011;11814;44.686;10.842;2023-08-20T07:28:07;13.82;;;11.93;;
23290;SDS011;11814;44.686;10.842;2023-08-20T07:30:34;14.88;;;9.60;;
23290;SDS011;11814;44.686;10.842;2023-08-20T07:33:00;10.30;;;8.90;;
23290;SDS011;11814;44.686;10.842;2023-08-20T07:35:27;10.18;;;8.90;;
23290;SDS011;11814;44.686;10.842;2023-08-20T07:37:52;13.05;;;9.90;;
23290;SDS011;11814;44.686;10.842;2023-08-20T07:40:18;15.55;;;11.18;;
23290;SDS011;11814;44.686;10.842;2023-08-20T07:42:44;13.30;;;11.70;;
23290;SDS011;11814;44.686;10.842;2023-08-20T07:45:10;12.93;;;11.60;;
23290;SDS011;11814;44.686;10.842;2023-08-20T07:47:36;14.98;;;12.32;;
23290;SDS011;11814;44.686;10.842;2023-08-20T07:50:05;12.95;;;11.30;;
23290;SDS011;11814;44.686;10.842;2023-08-20T07:52:32;15.80;;;12.23;;
23290;SDS011;11814;44.686;10.842;2023-08-20T07:54:57;14.32;;;10.80;;
23290;SDS011;11814;44.686;10.842;2023-08-20T07:57:23;14.57;;;11.77;;
23290;SDS011;11814;44.686;10.842;2023-08-20T07:59:49;14.57;;;10.73;;
23290;SDS011;11814;44.686;10.842;2023-08-20T08:02:15;13.55;;;12.13;;
23290;SDS011;11814;44.686;10.842;2023-08-20T08:04:41;14.52;;;11.82;;
23290;SDS011;11814;44.686;10.842;2023-08-20T08:07:08;13.13;;;11.93;;
23290;SDS011;11814;44.686;10.842;2023-08-20T08:09:34;13.18;;;11.40;;
23290;SDS011;11814;44.686;10.842;2023-08-20T08:12:00;12.18;;;10.52;;
23290;SDS011;11814;44.686;10.842;2023-08-20T08:14:26;12.55;;;10.23;;
23290;SDS011;11814;44.686;10.842;2023-08-20T08:16:52;10.05;;;8.90;;
23290;SDS011;11814;44.686;10.842;2023-08-20T08:19:18;10.52;;;9.45;;
23290;SDS011;11814;44.686;10.842;2023-08-20T08:21:45;14.77;;;10.18;;
23290;SDS011;11814;44.686;10.842;2023-08-20T08:24:11;11.90;;;9.48;;
23290;SDS011;11814;44.686;10.842;2023-08-20T08:26:37;13.27;;;8.93;;
23290;SDS011;11814;44.686;10.842;2023-08-20T08:29:03;10.60;;;8.98;;
23290;SDS011;11814;44.686;10.842;2023-08-20T08:31:30;10.65;;;8.27;;
23290;SDS011;11814;44.686;10.842;2023-08-20T08:33:55;11.00;;;7.13;;
23290;SDS011;11814;44.686;10.842;2023-08-20T08:36:21;11.27;;;6.90;;
23290;SDS011;11814;44.686;10.842;2023-08-20T08:38:49;11.73;;;8.90;;
23290;SDS011;11814;44.686;10.842;2023-08-20T08:41:16;11.73;;;9.07;;
23290;SDS011;11814;44.686;10.842;2023-08-20T08:43:42;10.15;;;8.32;;
23290;SDS011;11814;44.686;10.842;2023-08-20T08:46:09;10.32;;;7.53;;
23290;SDS011;11814;44.686;10.842;2023-08-20T08:48:43;10.32;;;7.95;;
23290;SDS011;11814;44.686;10.842;2023-08-20T08:51:09;11.55;;;8.55;;
23290;SDS011;11814;44.686;10.842;2023-08-20T08:53:37;9.43;;;6.85;;
23290;SDS011;11814;44.686;10.842;2023-08-20T08:56:03;9.52;;;6.75;;
23290;SDS011;11814;44.686;10.842;2023-08-20T08:58:30;11.57;;;7.65;;
23290;SDS011;11814;44.686;10.842;2023-08-20T09:00:57;12.88;;;7.15;;
23290;SDS011;11814;44.686;10.842;2023-08-20T09:03:23;7.30;;;6.50;;
23290;SDS011;11814;44.686;10.842;2023-08-20T09:05:59;8.82;;;7.15;;
23290;SDS011;11814;44.686;10.842;2023-08-20T09:08:28;7.97;;;7.03;;
23290;SDS011;11814;44.686;10.842;2023-08-20T09:10:55;8.77;;;7.60;;
23290;SDS011;11814;44.686;10.842;2023-08-20T09:13:25;13.15;;;7.35;;
23290;SDS011;11814;44.686;10.842;2023-08-20T09:15:58;11.25;;;7.47;;
23290;SDS011;11814;44.686;10.842;2023-08-20T09:18:23;10.48;;;6.97;;
23290;SDS011;11814;44.686;10.842;2023-08-20T09:20:49;8.00;;;6.95;;
23290;SDS011;11814;44.686;10.842;2023-08-20T09:23:15;10.13;;;7.43;;
23290;SDS011;11814;44.686;10.842;2023-08-20T09:25:42;8.27;;;7.15;;
23290;SDS011;11814;44.686;10.842;2023-08-20T09:28:08;10.38;;;7.10;;
23290;SDS011;11814;44.686;10.842;2023-08-20T09:30:34;8.48;;;6.50;;
23290;SDS011;11814;44.686;10.842;2023-08-20T09:33:12;11.23;;;7.25;;
23290;SDS011;11814;44.686;10.842;2023-08-20T09:35:48;8.27;;;6.88;;
23290;SDS011;11814;44.686;10.842;2023-08-20T09:38:14;9.32;;;7.18;;
23290;SDS011;11814;44.686;10.842;2023-08-20T09:40:43;10.75;;;7.28;;
23290;SDS011;11814;44.686;10.842;2023-08-20T09:43:09;9.85;;;7.10;;
23290;SDS011;11814;44.686;10.842;2023-08-20T09:45:37;7.72;;;6.93;;
23290;SDS011;11814;44.686;10.842;2023-08-20T09:48:03;7.85;;;7.05;;
23290;SDS011;11814;44.686;10.842;2023-08-20T09:50:34;9.13;;;6.70;;
23290;SDS011;11814;44.686;10.842;2023-08-20T09:53:12;10.35;;;7.20;;
23290;SDS011;11814;44.686;10.842;2023-08-20T09:55:42;8.82;;;6.50;;
23290;SDS011;11814;44.686;10.842;2023-08-20T09:58:10;8.30;;;6.90;;
23290;SDS011;11814;44.686;10.842;2023-08-20T10:00:35;9.73;;;7.07;;
23290;SDS011;11814;44.686;10.842;2023-08-20T10:03:01;9.32;;;6.57;;
23290;SDS011;11814;44.686;10.842;2023-08-20T10:05:27;7.05;;;5.95;;
23290;SDS011;11814;44.686;10.842;2023-08-20T10:07:54;7.60;;;6.88;;
23290;SDS011;11814;44.686;10.842;2023-08-20T10:10:20;7.20;;;6.47;;
23290;SDS011;11814;44.686;10.842;2023-08-20T10:12:46;7.97;;;7.18;;
23290;SDS011;11814;44.686;10.842;2023-08-20T10:15:13;9.55;;;7.60;;
23290;SDS011;11814;44.686;10.842;2023-08-20T10:17:40;7.78;;;6.88;;
23290;SDS011;11814;44.686;10.842;2023-08-20T10:20:07;8.13;;;7.22;;
23290;SDS011;11814;44.686;10.842;2023-08-20T10:22:35;9.65;;;7.00;;
23290;SDS011;11814;44.686;10.842;2023-08-20T10:25:08;7.43;;;6.40;;
23290;SDS011;11814;44.686;10.842;2023-08-20T10:27:36;7.20;;;6.50;;
23290;SDS011;11814;44.686;10.842;2023-08-20T10:30:10;8.80;;;6.70;;
23290;SDS011;11814;44.686;10.842;2023-08-20T10:32:51;7.78;;;6.47;;
23290;SDS011;11814;44.686;10.842;2023-08-20T10:35:28;7.65;;;6.95;;
23290;SDS011;11814;44.686;10.842;2023-08-20T10:38:12;7.35;;;6.40;;
23290;SDS011;11814;44.686;10.842;2023-08-20T10:40:47;7.22;;;6.53;;
23290;SDS011;11814;44.686;10.842;2023-08-20T10:48:31;7.10;;;6.40;;
23290;SDS011;11814;44.686;10.842;2023-08-20T10:51:08;9.93;;;6.55;;
23290;SDS011;11814;44.686;10.842;2023-08-20T10:53:42;8.07;;;6.78;;
23290;SDS011;11814;44.686;10.842;2023-08-20T10:56:14;9.95;;;6.60;;
23290;SDS011;11814;44.686;10.842;2023-08-20T10:58:41;9.52;;;6.88;;
23290;SDS011;11814;44.686;10.842;2023-08-20T11:03:44;8.10;;;7.00;;
23290;SDS011;11814;44.686;10.842;2023-08-20T11:06:11;9.57;;;7.18;;
23290;SDS011;11814;44.686;10.842;2023-08-20T11:08:38;6.43;;;5.72;;
23290;SDS011;11814;44.686;10.842;2023-08-20T11:11:04;6.13;;;5.43;;
23290;SDS011;11814;44.686;10.842;2023-08-20T11:13:32;9.73;;;6.45;;
23290;SDS011;11814;44.686;10.842;2023-08-20T11:15:58;9.95;;;5.82;;
23290;SDS011;11814;44.686;10.842;2023-08-20T11:18:24;6.95;;;5.38;;
23290;SDS011;11814;44.686;10.842;2023-08-20T11:20:50;8.93;;;5.97;;
23290;SDS011;11814;44.686;10.842;2023-08-20T11:23:16;10.48;;;6.00;;
23290;SDS011;11814;44.686;10.842;2023-08-20T11:25:42;6.93;;;6.25;;
23290;SDS011;11814;44.686;10.842;2023-08-20T11:28:08;7.38;;;6.30;;
23290;SDS011;11814;44.686;10.842;2023-08-20T11:30:34;7.95;;;6.05;;
23290;SDS011;11814;44.686;10.842;2023-08-20T11:33:00;6.85;;;5.60;;
23290;SDS011;11814;44.686;10.842;2023-08-20T11:35:27;7.00;;;6.00;;
23290;SDS011;11814;44.686;10.842;2023-08-20T11:37:53;6.32;;;5.72;;
23290;SDS011;11814;44.686;10.842;2023-08-20T11:40:22;7.53;;;5.40;;
23290;SDS011;11814;44.686;10.842;2023-08-20T11:42:48;8.52;;;6.00;;
23290;SDS011;11814;44.686;10.842;2023-08-20T11:45:13;9.57;;;6.45;;
23290;SDS011;11814;44.686;10.842;2023-08-20T11:47:40;10.73;;;6.20;;
23290;SDS011;11814;44.686;10.842;2023-08-20T11:50:07;7.50;;;5.45;;
23290;SDS011;11814;44.686;10.842;2023-08-20T11:52:33;9.25;;;6.20;;
23290;SDS011;11814;44.686;10.842;2023-08-20T11:55:00;7.85;;;6.15;;
23290;SDS011;11814;44.686;10.842;2023-08-20T11:57:26;10.48;;;6.13;;
23290;SDS011;11814;44.686;10.842;2023-08-20T11:59:53;7.13;;;6.05;;
23290;SDS011;11814;44.686;10.842;2023-08-20T12:02:26;7.28;;;6.00;;
23290;SDS011;11814;44.686;10.842;2023-08-20T12:04:54;7.85;;;5.97;;
23290;SDS011;11814;44.686;10.842;2023-08-20T12:07:26;9.52;;;6.03;;
23290;SDS011;11814;44.686;10.842;2023-08-20T12:09:55;6.35;;;5.70;;
23290;SDS011;11814;44.686;10.842;2023-08-20T12:12:21;6.35;;;5.63;;
23290;SDS011;11814;44.686;10.842;2023-08-20T12:14:47;6.65;;;5.45;;
23290;SDS011;11814;44.686;10.842;2023-08-20T12:17:17;6.50;;;5.35;;
23290;SDS011;11814;44.686;10.842;2023-08-20T12:19:43;6.13;;;5.53;;
23290;SDS011;11814;44.686;10.842;2023-08-20T12:22:09;5.63;;;5.07;;
23290;SDS011;11814;44.686;10.842;2023-08-20T12:24:35;6.30;;;5.70;;
23290;SDS011;11814;44.686;10.842;2023-08-20T12:27:01;6.90;;;5.55;;
23290;SDS011;11814;44.686;10.842;2023-08-20T12:29:27;7.38;;;5.47;;
23290;SDS011;11814;44.686;10.842;2023-08-20T12:31:53;8.35;;;5.53;;
23290;SDS011;11814;44.686;10.842;2023-08-20T12:34:19;7.40;;;4.90;;
23290;SDS011;11814;44.686;10.842;2023-08-20T12:36:46;5.63;;;4.75;;
23290;SDS011;11814;44.686;10.842;2023-08-20T12:39:12;7.13;;;5.00;;
23290;SDS011;11814;44.686;10.842;2023-08-20T12:41:39;6.25;;;4.88;;
23290;SDS011;11814;44.686;10.842;2023-08-20T12:44:05;5.95;;;4.90;;
23290;SDS011;11814;44.686;10.842;2023-08-20T12:46:30;6.30;;;4.53;;
23290;SDS011;11814;44.686;10.842;2023-08-20T12:48:56;5.75;;;5.15;;
23290;SDS011;11814;44.686;10.842;2023-08-20T12:51:22;5.50;;;4.93;;
23290;SDS011;11814;44.686;10.842;2023-08-20T12:53:48;8.55;;;4.80;;
23290;SDS011;11814;44.686;10.842;2023-08-20T12:56:13;5.78;;;5.20;;
23290;SDS011;11814;44.686;10.842;2023-08-20T12:58:40;7.15;;;4.80;;
23290;SDS011;11814;44.686;10.842;2023-08-20T13:01:06;8.02;;;5.03;;
23290;SDS011;11814;44.686;10.842;2023-08-20T13:03:32;7.40;;;4.57;;
23290;SDS011;11814;44.686;10.842;2023-08-20T13:05:58;5.85;;;5.30;;
23290;SDS011;11814;44.686;10.842;2023-08-20T13:08:24;5.15;;;4.65;;
23290;SDS011;11814;44.686;10.842;2023-08-20T13:10:54;5.68;;;4.97;;
23290;SDS011;11814;44.686;10.842;2023-08-20T13:13:22;6.90;;;5.10;;
23290;SDS011;11814;44.686;10.842;2023-08-20T13:15:52;7.05;;;5.38;;
23290;SDS011;11814;44.686;10.842;2023-08-20T13:18:18;8.88;;;5.10;;
23290;SDS011;11814;44.686;10.842;2023-08-20T13:20:45;6.53;;;5.30;;
23290;SDS011;11814;44.686;10.842;2023-08-20T13:23:10;6.63;;;5.07;;
23290;SDS011;11814;44.686;10.842;2023-08-20T13:25:36;6.95;;;5.30;;
23290;SDS011;11814;44.686;10.842;2023-08-20T13:28:02;6.82;;;5.60;;
23290;SDS011;11814;44.686;10.842;2023-08-20T13:30:28;6.35;;;5.47;;
23290;SDS011;11814;44.686;10.842;2023-08-20T13:32:53;7.35;;;5.57;;
23290;SDS011;11814;44.686;10.842;2023-08-20T13:35:19;7.75;;;5.47;;
23290;SDS011;11814;44.686;10.842;2023-08-20T13:37:45;9.35;;;5.03;;
23290;SDS011;11814;44.686;10.842;2023-08-20T13:40:11;8.73;;;5.50;;
23290;SDS011;11814;44.686;10.842;2023-08-20T13:42:36;6.47;;;4.90;;
23290;SDS011;11814;44.686;10.842;2023-08-20T13:45:02;5.20;;;4.70;;
23290;SDS011;11814;44.686;10.842;2023-08-20T13:47:28;7.50;;;5.20;;
23290;SDS011;11814;44.686;10.842;2023-08-20T13:49:54;9.35;;;4.65;;
23290;SDS011;11814;44.686;10.842;2023-08-20T13:52:20;5.18;;;4.68;;
23290;SDS011;11814;44.686;10.842;2023-08-20T13:54:46;8.82;;;5.32;;
23290;SDS011;11814;44.686;10.842;2023-08-20T13:57:11;7.32;;;4.78;;
23290;SDS011;11814;44.686;10.842;2023-08-20T13:59:46;8.45;;;5.03;;
23290;SDS011;11814;44.686;10.842;2023-08-20T14:02:12;7.38;;;5.03;;
23290;SDS011;11814;44.686;10.842;2023-08-20T14:04:37;8.15;;;4.90;;
23290;SDS011;11814;44.686;10.842;2023-08-20T14:07:03;8.30;;;5.25;;
23290;SDS011;11814;44.686;10.842;2023-08-20T14:09:29;8.93;;;5.40;;
23290;SDS011;11814;44.686;10.842;2023-08-20T14:11:54;9.20;;;5.53;;
23290;SDS011;11814;44.686;10.842;2023-08-20T14:14:20;5.90;;;5.30;;
23290;SDS011;11814;44.686;10.842;2023-08-20T14:16:45;7.57;;;5.60;;
23290;SDS011;11814;44.686;10.842;2023-08-20T14:19:11;7.90;;;5.35;;
23290;SDS011;11814;44.686;10.842;2023-08-20T14:21:37;5.53;;;4.97;;
23290;SDS011;11814;44.686;10.842;2023-08-20T14:24:03;7.80;;;4.88;;
23290;SDS011;11814;44.686;10.842;2023-08-20T14:26:29;8.55;;;4.95;;
23290;SDS011;11814;44.686;10.842;2023-08-20T14:28:54;7.13;;;4.97;;
23290;SDS011;11814;44.686;10.842;2023-08-20T14:31:20;6.25;;;5.20;;
23290;SDS011;11814;44.686;10.842;2023-08-20T14:33:46;7.57;;;5.15;;